createdAt,value
2022-11-06T00:02:23.908Z,45.57
2022-11-06T00:05:37.327Z,45.60
2022-11-06T00:08:34.065Z,46.30
2022-11-06T00:11:19.211Z,46.97
2022-11-06T00:14:04.386Z,44.87
2022-11-06T00:16:49.257Z,46.70
2022-11-06T00:19:33.130Z,47.23
2022-11-06T00:22:17.003Z,45.47
2022-11-06T00:25:02.546Z,40.77
2022-11-06T00:27:46.412Z,38.60
2022-11-06T00:30:30.166Z,41.27
2022-11-06T00:33:13.940Z,41.53
2022-11-06T00:35:58.216Z,38.50
2022-11-06T00:38:42.342Z,32.90
2022-11-06T00:41:28.338Z,37.20
2022-11-06T00:44:12.112Z,33.40
2022-11-06T00:46:55.985Z,35.60
2022-11-06T00:49:39.871Z,38.07
2022-11-06T00:52:24.033Z,41.27
2022-11-06T00:55:08.193Z,38.97
2022-11-06T00:57:53.546Z,42.63
2022-11-06T01:00:37.270Z,39.90
2022-11-06T01:03:21.168Z,35.57
2022-11-06T01:06:07.710Z,36.67
2022-11-06T01:08:52.225Z,27.77
2022-11-06T01:12:06.900Z,34.07
2022-11-06T01:14:44.289Z,32.03
2022-11-06T01:17:28.974Z,29.27
2022-11-06T01:20:12.921Z,28.70
2022-11-06T01:22:56.705Z,30.37
2022-11-06T01:25:40.785Z,27.67
2022-11-06T01:28:24.848Z,26.03
2022-11-06T01:31:12.365Z,27.43
2022-11-06T01:33:56.432Z,26.67
2022-11-06T01:36:40.813Z,24.63
2022-11-06T01:39:24.925Z,27.30
2022-11-06T01:42:08.754Z,26.10
2022-11-06T01:45:25.478Z,24.10
2022-11-06T01:48:12.019Z,24.40
2022-11-06T01:50:58.783Z,22.40
2022-11-06T01:53:44.781Z,21.57
2022-11-06T01:56:28.495Z,19.83
2022-11-06T01:59:16.605Z,19.77
2022-11-06T02:02:00.626Z,18.23
2022-11-06T02:04:48.300Z,15.67
2022-11-06T02:07:32.445Z,16.00
2022-11-06T02:10:16.669Z,16.57
2022-11-06T02:13:10.621Z,13.97
2022-11-06T02:15:59.848Z,14.60
2022-11-06T02:19:17.212Z,14.83
2022-11-06T02:22:22.430Z,13.93
2022-11-06T02:25:16.661Z,12.87
2022-11-06T02:28:08.497Z,13.47
2022-11-06T02:30:54.165Z,13.87
2022-11-06T02:33:44.477Z,14.10
2022-11-06T02:36:32.191Z,13.30
2022-11-06T02:39:21.720Z,13.70
2022-11-06T02:42:08.807Z,14.60
2022-11-06T02:44:56.614Z,15.80
2022-11-06T02:47:42.894Z,16.13
2022-11-06T02:50:32.085Z,16.87
2022-11-06T02:53:19.473Z,18.87
2022-11-06T02:56:08.469Z,22.30
2022-11-06T02:58:58.951Z,22.23
2022-11-06T03:01:49.303Z,24.10
2022-11-06T03:04:40.320Z,23.83
2022-11-06T03:07:30.211Z,24.73
2022-11-06T03:10:14.370Z,27.67
2022-11-06T03:13:01.963Z,28.40
2022-11-06T03:15:54.396Z,30.80
2022-11-06T03:18:48.417Z,32.20
2022-11-06T03:21:39.524Z,32.43
2022-11-06T03:24:31.344Z,34.03
2022-11-06T03:27:20.551Z,36.40
2022-11-06T03:30:10.397Z,35.93
2022-11-06T03:33:02.446Z,37.90
2022-11-06T03:35:51.477Z,42.40
2022-11-06T03:38:42.190Z,39.70
2022-11-06T03:41:33.121Z,38.63
2022-11-06T03:44:21.143Z,39.67
2022-11-06T03:47:10.597Z,39.37
2022-11-06T03:49:59.025Z,41.13
2022-11-06T03:52:48.179Z,39.00
2022-11-06T03:55:37.618Z,39.07
2022-11-06T03:58:25.118Z,40.10
2022-11-06T04:01:11.469Z,37.43
2022-11-06T04:04:00.035Z,39.57
2022-11-06T04:06:48.481Z,38.03
2022-11-06T04:09:54.297Z,37.77
2022-11-06T04:13:02.583Z,38.43
2022-11-06T04:15:53.650Z,36.00
2022-11-06T04:18:37.734Z,34.37
2022-11-06T04:21:32.174Z,35.57
2022-11-06T04:24:45.994Z,32.43
2022-11-06T04:27:46.404Z,31.63
2022-11-06T04:30:33.677Z,28.53
2022-11-06T04:33:26.718Z,28.97
2022-11-06T04:36:17.980Z,29.07
2022-11-06T04:39:09.621Z,26.10
2022-11-06T04:41:59.520Z,25.90
2022-11-06T04:44:49.235Z,24.23
2022-11-06T04:47:33.793Z,24.00
2022-11-06T04:50:23.035Z,24.83
2022-11-06T04:53:10.263Z,23.07
2022-11-06T04:56:01.259Z,23.47
2022-11-06T04:58:45.164Z,23.37
2022-11-06T05:01:30.619Z,20.97
2022-11-06T05:04:15.153Z,20.73
2022-11-06T05:06:59.508Z,18.33
2022-11-06T05:09:43.395Z,19.60
2022-11-06T05:12:27.158Z,19.13
2022-11-06T05:15:11.281Z,19.07
2022-11-06T05:17:58.580Z,20.80
2022-11-06T05:20:42.398Z,20.97
2022-11-06T05:23:25.458Z,20.13
2022-11-06T05:26:09.852Z,21.50
2022-11-06T05:28:53.857Z,20.30
2022-11-06T05:31:37.609Z,22.97
2022-11-06T05:34:23.082Z,22.13
2022-11-06T05:37:06.940Z,22.57
2022-11-06T05:39:50.618Z,21.83
2022-11-06T05:42:35.728Z,23.33
2022-11-06T05:45:19.729Z,23.33
2022-11-06T05:48:03.474Z,23.53
2022-11-06T05:50:48.780Z,22.03
2022-11-06T05:53:33.534Z,19.60
2022-11-06T05:56:17.348Z,21.37
2022-11-06T05:59:01.103Z,20.87
2022-11-06T06:01:45.685Z,18.60
2022-11-06T06:04:29.682Z,19.70
2022-11-06T06:07:15.062Z,19.63
2022-11-06T06:09:58.869Z,19.73
2022-11-06T06:12:42.600Z,18.83
2022-11-06T06:15:26.309Z,19.17
2022-11-06T06:18:11.101Z,16.23
2022-11-06T06:20:54.941Z,17.30
2022-11-06T06:23:40.066Z,18.83
2022-11-06T06:26:24.268Z,17.63
2022-11-06T06:29:08.211Z,17.47
2022-11-06T06:31:53.603Z,19.50
2022-11-06T06:34:37.743Z,17.60
2022-11-06T06:37:21.477Z,17.07
2022-11-06T06:40:08.223Z,17.53
2022-11-06T06:42:52.128Z,17.93
2022-11-06T06:45:36.501Z,17.33
2022-11-06T06:48:20.635Z,16.37
2022-11-06T06:51:05.262Z,18.20
2022-11-06T06:53:49.377Z,17.73
2022-11-06T06:56:34.786Z,17.60
2022-11-06T06:59:18.556Z,15.60
2022-11-06T07:02:02.624Z,15.13
2022-11-06T07:04:46.787Z,17.40
2022-11-06T07:07:30.754Z,16.70
2022-11-06T07:10:14.634Z,17.27
2022-11-06T07:13:03.547Z,17.07
2022-11-06T07:15:47.260Z,17.58
2022-11-06T07:18:31.037Z,16.08
2022-11-06T07:21:15.091Z,16.42
2022-11-06T07:23:58.946Z,15.97
2022-11-06T07:26:43.274Z,15.50
2022-11-06T07:29:28.585Z,15.43
2022-11-06T07:32:12.774Z,15.88
2022-11-06T07:34:56.838Z,15.93
2022-11-06T07:37:40.741Z,15.10
2022-11-06T07:40:26.365Z,16.30
2022-11-06T07:43:11.976Z,14.75
2022-11-06T07:46:00.360Z,15.20
2022-11-06T07:48:44.275Z,14.65
2022-11-06T07:51:28.215Z,14.23
2022-11-06T07:54:12.499Z,13.82
2022-11-06T07:56:56.379Z,14.55
2022-11-06T07:59:40.128Z,13.85
2022-11-06T08:02:25.393Z,13.80
2022-11-06T08:05:09.753Z,13.35
2022-11-06T08:07:57.884Z,13.15
2022-11-06T08:10:43.987Z,14.20
2022-11-06T08:13:29.413Z,14.18
2022-11-06T08:16:15.283Z,12.27
2022-11-06T08:19:00.814Z,13.80
2022-11-06T08:21:44.658Z,13.75
2022-11-06T08:24:28.824Z,14.07
2022-11-06T08:27:13.023Z,12.80
2022-11-06T08:29:57.291Z,13.07
2022-11-06T08:32:41.625Z,14.05
2022-11-06T08:35:27.464Z,13.25
2022-11-06T08:38:13.030Z,12.25
2022-11-06T08:40:57.175Z,12.45
2022-11-06T08:43:42.213Z,12.05
2022-11-06T08:46:26.165Z,11.68
2022-11-06T08:49:11.562Z,11.95
2022-11-06T08:51:56.847Z,12.38
2022-11-06T08:54:41.105Z,12.15
2022-11-06T08:57:25.641Z,12.30
2022-11-06T09:00:13.967Z,12.68
2022-11-06T09:03:03.119Z,12.90
2022-11-06T09:05:47.174Z,12.25
2022-11-06T09:08:32.463Z,11.23
2022-11-06T09:11:16.351Z,11.52
2022-11-06T09:14:00.319Z,12.15
2022-11-06T09:16:44.188Z,11.85
2022-11-06T09:19:28.236Z,12.32
2022-11-06T09:22:12.383Z,12.40
2022-11-06T09:25:03.700Z,12.00
2022-11-06T09:27:54.312Z,10.80
2022-11-06T09:30:41.530Z,12.35
2022-11-06T09:33:25.489Z,11.93
2022-11-06T09:36:10.362Z,11.27
2022-11-06T09:38:54.601Z,10.90
2022-11-06T09:41:55.188Z,11.88
2022-11-06T09:45:02.186Z,12.80
2022-11-06T09:47:53.642Z,11.68
2022-11-06T09:50:43.736Z,12.80
2022-11-06T09:53:34.279Z,10.43
2022-11-06T09:56:22.232Z,11.15
2022-11-06T09:59:14.088Z,11.80
2022-11-06T10:02:01.868Z,11.63
2022-11-06T10:04:52.825Z,12.23
2022-11-06T10:07:39.582Z,12.15
2022-11-06T10:10:29.864Z,11.35
2022-11-06T10:13:26.244Z,11.43
2022-11-06T10:16:17.619Z,12.18
2022-11-06T10:19:11.412Z,11.73
2022-11-06T10:22:09.424Z,12.48
2022-11-06T10:25:01.832Z,13.80
2022-11-06T10:27:58.756Z,12.10
2022-11-06T10:30:53.615Z,12.88
2022-11-06T10:33:53.238Z,12.25
2022-11-06T10:36:49.562Z,11.60
2022-11-06T10:39:37.026Z,10.70
2022-11-06T10:42:23.508Z,11.25
2022-11-06T10:45:13.563Z,12.18
2022-11-06T10:48:06.006Z,10.65
2022-11-06T10:51:00.714Z,11.52
2022-11-06T10:53:57.653Z,13.13
2022-11-06T10:56:53.806Z,11.70
2022-11-06T10:59:38.415Z,12.13
2022-11-06T11:02:27.481Z,11.95
2022-11-06T11:05:14.695Z,14.60
2022-11-06T11:07:59.732Z,11.93
2022-11-06T11:10:51.979Z,11.70
2022-11-06T11:13:49.159Z,12.27
2022-11-06T11:16:36.328Z,11.95
2022-11-06T11:19:36.264Z,11.95
2022-11-06T11:22:22.054Z,11.38
2022-11-06T11:25:10.244Z,11.23
2022-11-06T11:27:54.407Z,11.23
2022-11-06T11:30:38.774Z,11.73
2022-11-06T11:33:25.882Z,11.35
2022-11-06T11:36:11.683Z,10.27
2022-11-06T11:38:55.890Z,11.45
2022-11-06T11:41:41.429Z,11.82
2022-11-06T11:44:25.619Z,10.07
2022-11-06T11:47:22.602Z,10.85
2022-11-06T11:50:30.701Z,11.52
2022-11-06T11:53:22.211Z,10.15
2022-11-06T11:56:08.900Z,10.07
2022-11-06T11:58:56.553Z,12.70
2022-11-06T12:01:42.034Z,11.30
2022-11-06T12:04:31.333Z,11.77
2022-11-06T12:07:23.450Z,10.95
2022-11-06T12:10:28.050Z,11.55
2022-11-06T12:13:20.328Z,11.05
2022-11-06T12:16:09.590Z,11.30
2022-11-06T12:18:59.054Z,11.05
2022-11-06T12:21:47.339Z,11.77
2022-11-06T12:24:37.359Z,9.98
2022-11-06T12:27:25.981Z,11.73
2022-11-06T12:30:13.895Z,10.95
2022-11-06T12:33:11.428Z,10.48
2022-11-06T12:36:00.891Z,11.55
2022-11-06T12:38:51.095Z,11.48
2022-11-06T12:41:38.997Z,12.63
2022-11-06T12:44:22.921Z,12.45
2022-11-06T12:47:12.860Z,11.63
2022-11-06T12:50:13.738Z,12.43
2022-11-06T12:53:09.568Z,11.40
2022-11-06T12:56:00.416Z,10.75
2022-11-06T12:59:13.388Z,11.93
2022-11-06T13:02:16.431Z,10.95
2022-11-06T13:05:08.449Z,11.52
2022-11-06T13:08:13.401Z,11.75
2022-11-06T13:11:10.511Z,10.95
2022-11-06T13:14:10.830Z,11.88
2022-11-06T13:17:01.821Z,11.95
2022-11-06T13:19:54.268Z,11.23
2022-11-06T13:22:45.769Z,11.57
2022-11-06T13:25:39.832Z,11.43
2022-11-06T13:28:30.501Z,10.57
2022-11-06T13:31:18.796Z,11.93
2022-11-06T13:34:04.130Z,12.10
2022-11-06T13:36:48.563Z,10.93
2022-11-06T13:39:38.569Z,11.05
2022-11-06T13:42:27.801Z,11.32
2022-11-06T13:45:17.065Z,11.38
2022-11-06T13:48:30.864Z,10.52
2022-11-06T13:51:25.808Z,10.55
2022-11-06T13:54:22.873Z,9.98
2022-11-06T13:57:40.551Z,11.50
2022-11-06T14:00:25.443Z,10.18
2022-11-06T14:03:29.331Z,10.73
2022-11-06T14:06:18.164Z,9.68
2022-11-06T14:09:06.564Z,10.98
2022-11-06T14:11:55.424Z,11.95
2022-11-06T14:14:40.558Z,11.38
2022-11-06T14:17:25.858Z,10.18
2022-11-06T14:20:31.948Z,11.25
2022-11-06T14:23:53.976Z,13.65
2022-11-06T14:26:40.432Z,15.20
2022-11-06T14:30:02.536Z,10.63
2022-11-06T14:32:48.949Z,13.10
2022-11-06T14:35:51.974Z,17.13
2022-11-06T14:38:37.143Z,10.43
2022-11-06T14:41:55.830Z,9.80
2022-11-06T14:44:49.292Z,9.80
2022-11-06T14:47:37.981Z,10.03
2022-11-06T14:50:26.840Z,9.30
2022-11-06T14:53:21.644Z,9.98
2022-11-06T14:56:09.290Z,10.37
2022-11-06T14:58:57.244Z,9.77
2022-11-06T15:01:41.068Z,10.53
2022-11-06T15:04:27.176Z,10.90
2022-11-06T15:07:50.939Z,10.38
2022-11-06T15:10:54.137Z,9.87
2022-11-06T15:13:37.856Z,10.77
2022-11-06T15:16:24.071Z,11.40
2022-11-06T15:19:15.532Z,11.83
2022-11-06T15:22:07.972Z,11.10
2022-11-06T15:24:56.842Z,11.50
2022-11-06T15:27:45.091Z,9.93
2022-11-06T15:30:30.517Z,15.30
2022-11-06T15:33:18.730Z,11.83
2022-11-06T15:36:06.646Z,11.03
2022-11-06T15:38:51.954Z,12.20
2022-11-06T15:41:38.077Z,11.50
2022-11-06T15:44:25.260Z,12.47
2022-11-06T15:47:21.858Z,11.30
2022-11-06T15:50:16.784Z,10.50
2022-11-06T15:53:21.570Z,8.83
2022-11-06T15:56:10.083Z,9.10
2022-11-06T15:59:12.087Z,8.97
2022-11-06T16:01:56.161Z,9.27
2022-11-06T16:04:40.831Z,8.70
2022-11-06T16:07:24.573Z,8.40
2022-11-06T16:10:09.294Z,8.50
2022-11-06T16:12:56.145Z,7.90
2022-11-06T16:15:51.272Z,7.90
2022-11-06T16:18:41.939Z,7.17
2022-11-06T16:21:30.925Z,7.80
2022-11-06T16:24:17.602Z,7.97
2022-11-06T16:27:05.600Z,8.10
2022-11-06T16:29:54.582Z,7.40
2022-11-06T16:32:41.708Z,7.17
2022-11-06T16:35:33.113Z,7.70
2022-11-06T16:38:43.497Z,7.10
2022-11-06T16:42:02.378Z,6.63
2022-11-06T16:44:47.153Z,6.50
2022-11-06T16:47:32.245Z,7.47
2022-11-06T16:50:46.413Z,7.57
2022-11-06T16:53:32.639Z,6.43
2022-11-06T16:56:16.548Z,6.57
2022-11-06T16:59:05.355Z,5.93
2022-11-06T17:01:49.460Z,6.27
2022-11-06T17:04:34.862Z,6.20
2022-11-06T17:07:22.942Z,7.40
2022-11-06T17:10:26.010Z,7.37
2022-11-06T17:13:20.663Z,5.90
2022-11-06T17:16:06.694Z,6.87
2022-11-06T17:18:50.744Z,6.53
2022-11-06T17:21:35.830Z,7.03
2022-11-06T17:24:36.989Z,7.57
2022-11-06T17:27:21.162Z,7.73
2022-11-06T17:30:05.475Z,7.70
2022-11-06T17:32:49.268Z,7.07
2022-11-06T17:35:33.284Z,7.70
2022-11-06T17:38:19.410Z,8.10
2022-11-06T17:41:03.354Z,6.57
2022-11-06T17:43:47.350Z,6.33
2022-11-06T17:46:33.421Z,6.10
2022-11-06T17:49:18.686Z,6.37
2022-11-06T17:52:03.654Z,6.53
2022-11-06T17:54:49.063Z,6.93
2022-11-06T17:57:32.956Z,7.10
2022-11-06T18:00:17.245Z,7.70
2022-11-06T18:03:02.604Z,6.07
2022-11-06T18:05:46.929Z,6.73
2022-11-06T18:08:31.043Z,7.60
2022-11-06T18:11:16.698Z,7.90
2022-11-06T18:14:00.947Z,7.30
2022-11-06T18:16:44.850Z,7.00
2022-11-06T18:19:28.909Z,6.70
2022-11-06T18:22:12.855Z,7.87
2022-11-06T18:24:56.831Z,7.00
2022-11-06T18:27:42.231Z,6.53
2022-11-06T18:30:26.207Z,6.00
2022-11-06T18:33:10.117Z,7.13
2022-11-06T18:35:53.972Z,7.03
2022-11-06T18:38:38.564Z,7.57
2022-11-06T18:41:23.729Z,6.33
2022-11-06T18:44:09.182Z,7.07
2022-11-06T18:46:53.176Z,6.80
2022-11-06T18:49:37.083Z,7.07
2022-11-06T18:52:44.369Z,6.27
2022-11-06T18:55:24.943Z,7.27
2022-11-06T18:58:08.896Z,7.70
2022-11-06T19:00:59.011Z,7.47
2022-11-06T19:03:46.061Z,8.00
2022-11-06T19:06:29.880Z,6.50
2022-11-06T19:09:14.178Z,7.20
2022-11-06T19:11:58.295Z,7.67
2022-11-06T19:14:42.284Z,7.67
2022-11-06T19:17:27.718Z,7.47
2022-11-06T19:20:14.917Z,7.50
2022-11-06T19:22:59.302Z,7.93
2022-11-06T19:25:43.678Z,6.37
2022-11-06T19:28:29.993Z,6.30
2022-11-06T19:31:16.230Z,7.13
2022-11-06T19:34:02.810Z,7.20
2022-11-06T19:36:46.727Z,6.47
2022-11-06T19:39:30.615Z,6.57
2022-11-06T19:42:14.470Z,6.40
2022-11-06T19:44:58.184Z,6.93
2022-11-06T19:47:41.912Z,6.20
2022-11-06T19:50:53.509Z,5.83
2022-11-06T19:53:30.772Z,6.60
2022-11-06T19:56:17.678Z,6.47
2022-11-06T19:59:02.312Z,6.07
2022-11-06T20:01:47.661Z,6.10
2022-11-06T20:04:31.339Z,5.87
2022-11-06T20:07:16.591Z,5.43
2022-11-06T20:10:02.785Z,6.30
2022-11-06T20:12:46.664Z,6.43
2022-11-06T20:15:30.887Z,6.70
2022-11-06T20:18:14.615Z,6.00
2022-11-06T20:21:01.710Z,6.03
2022-11-06T20:23:46.872Z,6.37
2022-11-06T20:26:31.463Z,6.37
2022-11-06T20:29:15.135Z,5.80
2022-11-06T20:31:58.861Z,6.77
2022-11-06T20:34:42.701Z,6.07
2022-11-06T20:37:26.934Z,6.27
2022-11-06T20:40:12.793Z,5.47
2022-11-06T20:42:56.505Z,7.27
2022-11-06T20:45:40.285Z,6.33
2022-11-06T20:48:23.985Z,6.70
2022-11-06T20:51:09.713Z,6.77
2022-11-06T20:53:54.373Z,6.37
2022-11-06T20:56:39.624Z,6.47
2022-11-06T20:59:25.622Z,5.53
2022-11-06T21:02:11.762Z,5.97
2022-11-06T21:04:55.639Z,5.90
2022-11-06T21:07:39.300Z,7.33
2022-11-06T21:10:23.301Z,6.40
2022-11-06T21:13:08.424Z,7.33
2022-11-06T21:15:58.869Z,6.87
2022-11-06T21:18:43.242Z,6.63
2022-11-06T21:21:29.100Z,6.13
2022-11-06T21:24:12.786Z,6.80
2022-11-06T21:26:57.332Z,6.23
2022-11-06T21:29:42.467Z,5.47
2022-11-06T21:32:26.477Z,6.80
2022-11-06T21:35:10.373Z,6.70
2022-11-06T21:37:54.105Z,6.40
2022-11-06T21:40:40.085Z,7.20
2022-11-06T21:43:23.789Z,6.10
2022-11-06T21:46:11.379Z,6.53
2022-11-06T21:48:55.782Z,6.70
2022-11-06T21:51:39.699Z,6.13
2022-11-06T21:54:41.157Z,6.70
2022-11-06T21:57:24.827Z,7.30
2022-11-06T22:00:14.055Z,6.77
2022-11-06T22:03:00.138Z,6.97
2022-11-06T22:05:44.271Z,7.03
2022-11-06T22:08:30.525Z,7.20
2022-11-06T22:11:15.640Z,7.50
2022-11-06T22:14:01.613Z,6.43
2022-11-06T22:16:47.673Z,7.43
2022-11-06T22:19:32.807Z,7.03
2022-11-06T22:22:16.739Z,6.80
2022-11-06T22:25:00.692Z,7.47
2022-11-06T22:27:44.737Z,8.03
2022-11-06T22:30:28.538Z,6.97
2022-11-06T22:33:12.661Z,6.47
2022-11-06T22:36:03.505Z,7.47
2022-11-06T22:38:48.298Z,7.30
2022-11-06T22:41:32.028Z,6.93
2022-11-06T22:44:15.815Z,6.53
2022-11-06T22:47:00.175Z,7.00
2022-11-06T22:49:43.885Z,6.57
2022-11-06T22:52:29.060Z,6.40
2022-11-06T22:55:12.853Z,7.30
2022-11-06T22:57:56.523Z,7.40
2022-11-06T23:00:40.395Z,7.33
2022-11-06T23:03:25.453Z,6.87
2022-11-06T23:06:11.146Z,7.23
2022-11-06T23:08:56.545Z,6.70
2022-11-06T23:11:40.618Z,7.00
2022-11-06T23:14:24.541Z,7.03
2022-11-06T23:17:08.495Z,6.50
2022-11-06T23:19:52.481Z,6.70
2022-11-06T23:22:38.846Z,6.90
2022-11-06T23:25:24.410Z,6.93
2022-11-06T23:28:08.415Z,6.37
2022-11-06T23:30:52.100Z,6.77
2022-11-06T23:33:36.532Z,6.13
2022-11-06T23:36:20.653Z,6.90
2022-11-06T23:39:05.357Z,6.03
2022-11-06T23:41:51.186Z,7.10
2022-11-06T23:45:03.994Z,6.33
2022-11-06T23:47:50.333Z,4.77
2022-11-06T23:50:34.087Z,6.63
2022-11-06T23:53:18.276Z,6.40
2022-11-06T23:56:06.507Z,6.53
2022-11-06T23:58:51.566Z,6.20
